createdAt,value
2023-03-24T00:01:54.108Z,84.53
2023-03-24T00:04:21.784Z,84.18
2023-03-24T00:06:52.565Z,83.22
2023-03-24T00:09:19.933Z,82.84
2023-03-24T00:11:47.161Z,83.63
2023-03-24T00:14:14.120Z,84.28
2023-03-24T00:16:45.557Z,83.84
2023-03-24T00:19:15.087Z,83.28
2023-03-24T00:21:42.538Z,83.09
2023-03-24T00:24:11.675Z,82.99
2023-03-24T00:26:41.223Z,81.96
2023-03-24T00:29:11.866Z,81.76
2023-03-24T00:31:40.562Z,81.88
2023-03-24T00:34:08.928Z,81.96
2023-03-24T00:36:36.757Z,83.42
2023-03-24T00:39:06.234Z,82.87
2023-03-24T00:41:33.845Z,83.54
2023-03-24T00:44:03.796Z,82.67
2023-03-24T00:46:30.920Z,82.68
2023-03-24T00:49:06.055Z,82.77
2023-03-24T00:51:36.581Z,82.17
2023-03-24T00:54:04.128Z,82.69
2023-03-24T00:56:33.221Z,84.39
2023-03-24T00:59:02.314Z,83.32
2023-03-24T01:01:33.172Z,82.79
2023-03-24T01:04:00.344Z,83.56
2023-03-24T01:06:27.125Z,83.06
2023-03-24T01:08:54.227Z,82.96
2023-03-24T01:11:22.996Z,82.81
2023-03-24T01:13:50.434Z,83.32
2023-03-24T01:16:17.522Z,83.88
2023-03-24T01:18:44.895Z,85.25
2023-03-24T01:21:12.465Z,85.46
2023-03-24T01:23:42.048Z,85.53
2023-03-24T01:26:10.719Z,84.44
2023-03-24T01:28:41.152Z,84.80
2023-03-24T01:31:10.078Z,83.83
2023-03-24T01:33:38.174Z,84.19
2023-03-24T01:36:06.271Z,84.93
2023-03-24T01:38:33.826Z,85.31
2023-03-24T01:41:00.752Z,86.36
2023-03-24T01:43:32.824Z,85.98
2023-03-24T01:46:05.528Z,85.87
2023-03-24T01:48:43.647Z,86.07
2023-03-24T01:51:16.736Z,85.97
2023-03-24T01:54:01.657Z,85.69
2023-03-24T01:56:32.754Z,86.11
2023-03-24T01:59:00.546Z,84.97
2023-03-24T02:01:36.682Z,85.75
2023-03-24T02:04:28.224Z,85.35
2023-03-24T02:07:08.495Z,84.61
2023-03-24T02:09:35.527Z,85.47
2023-03-24T02:12:03.188Z,84.90
2023-03-24T02:14:32.196Z,84.64
2023-03-24T02:17:14.342Z,84.18
2023-03-24T02:19:47.792Z,85.54
2023-03-24T02:22:33.851Z,84.24
2023-03-24T02:25:09.886Z,85.16
2023-03-24T02:28:00.245Z,84.52
2023-03-24T02:31:04.952Z,84.55
2023-03-24T02:34:06.513Z,84.81
2023-03-24T02:36:38.885Z,84.09
2023-03-24T02:39:17.847Z,84.71
2023-03-24T02:42:12.242Z,84.83
2023-03-24T02:44:54.286Z,84.90
2023-03-24T02:47:25.537Z,83.95
2023-03-24T02:50:02.368Z,83.54
2023-03-24T02:53:00.257Z,83.40
2023-03-24T02:55:54.092Z,82.76
2023-03-24T02:58:35.547Z,82.58
2023-03-24T03:01:09.530Z,82.61
2023-03-24T03:04:08.475Z,83.21
2023-03-24T03:06:40.427Z,82.98
2023-03-24T03:09:11.503Z,83.44
2023-03-24T03:11:40.059Z,84.13
2023-03-24T03:14:21.236Z,83.55
2023-03-24T03:16:54.860Z,83.29
2023-03-24T03:19:24.658Z,83.97
2023-03-24T03:21:53.050Z,83.56
2023-03-24T03:24:27.205Z,84.49
2023-03-24T03:26:59.323Z,85.20
2023-03-24T03:29:30.197Z,83.65
2023-03-24T03:32:07.988Z,84.97
2023-03-24T03:34:43.421Z,84.79
2023-03-24T03:37:36.833Z,84.03
2023-03-24T03:40:13.138Z,83.50
2023-03-24T03:42:44.967Z,83.89
2023-03-24T03:45:12.515Z,83.78
2023-03-24T03:47:39.799Z,84.36
2023-03-24T03:50:08.898Z,84.39
2023-03-24T03:52:38.438Z,83.67
2023-03-24T03:55:06.194Z,85.02
2023-03-24T03:57:33.592Z,85.22
2023-03-24T04:00:24.122Z,86.01
2023-03-24T04:03:44.958Z,83.97
2023-03-24T04:06:15.782Z,85.71
2023-03-24T04:08:43.154Z,85.38
2023-03-24T04:11:26.167Z,85.07
2023-03-24T04:14:26.644Z,85.01
2023-03-24T04:17:26.573Z,85.43
2023-03-24T04:20:06.415Z,85.25
2023-03-24T04:23:03.330Z,83.60
2023-03-24T04:25:38.033Z,84.45
2023-03-24T04:28:21.916Z,85.17
2023-03-24T04:30:56.213Z,85.60
2023-03-24T04:33:30.441Z,85.90
2023-03-24T04:36:06.914Z,84.70
2023-03-24T04:38:41.486Z,85.66
2023-03-24T04:41:29.475Z,84.44
2023-03-24T04:44:11.698Z,85.06
2023-03-24T04:46:55.792Z,86.51
2023-03-24T04:49:25.549Z,85.65
2023-03-24T04:51:53.134Z,84.83
2023-03-24T04:54:24.423Z,85.56
2023-03-24T04:56:59.781Z,85.42
2023-03-24T04:59:37.875Z,85.73
2023-03-24T05:02:07.178Z,85.63
2023-03-24T05:04:40.842Z,85.68
2023-03-24T05:07:21.477Z,84.96
2023-03-24T05:09:51.110Z,85.45
2023-03-24T05:12:18.022Z,85.06
2023-03-24T05:15:05.693Z,86.04
2023-03-24T05:17:33.205Z,85.73
2023-03-24T05:20:00.577Z,86.23
2023-03-24T05:22:27.528Z,85.91
2023-03-24T05:24:54.363Z,86.20
2023-03-24T05:27:21.421Z,87.06
2023-03-24T05:29:48.508Z,86.36
2023-03-24T05:32:21.654Z,86.72
2023-03-24T05:34:48.529Z,86.44
2023-03-24T05:37:17.598Z,86.58
2023-03-24T05:39:48.875Z,85.80
2023-03-24T05:42:51.732Z,85.90
2023-03-24T05:45:19.809Z,86.73
2023-03-24T05:47:47.960Z,86.59
2023-03-24T05:50:18.188Z,86.36
2023-03-24T05:52:46.301Z,85.36
2023-03-24T05:55:34.935Z,85.87
2023-03-24T05:58:12.676Z,85.40
2023-03-24T06:00:50.529Z,85.92
2023-03-24T06:03:34.806Z,86.97
2023-03-24T06:06:16.881Z,86.94
2023-03-24T06:08:47.471Z,86.86
2023-03-24T06:11:16.829Z,85.67
2023-03-24T06:14:01.290Z,86.71
2023-03-24T06:16:34.226Z,87.16
2023-03-24T06:19:04.066Z,86.15
2023-03-24T06:21:51.060Z,86.32
2023-03-24T06:24:22.788Z,86.06
2023-03-24T06:26:51.059Z,86.39
2023-03-24T06:29:20.874Z,85.95
2023-03-24T06:31:48.679Z,85.33
2023-03-24T06:34:16.508Z,86.17
2023-03-24T06:36:48.396Z,86.16
2023-03-24T06:39:15.281Z,87.02
2023-03-24T06:41:42.262Z,86.23
2023-03-24T06:44:09.283Z,84.80
2023-03-24T06:46:36.243Z,85.04
2023-03-24T06:49:04.306Z,85.80
2023-03-24T06:51:31.040Z,86.31
2023-03-24T06:53:58.211Z,85.95
2023-03-24T06:56:27.217Z,86.18
2023-03-24T06:58:58.217Z,85.56
2023-03-24T07:01:28.614Z,85.23
2023-03-24T07:04:12.533Z,85.47
2023-03-24T07:07:04.630Z,84.76
2023-03-24T07:09:38.706Z,84.20
2023-03-24T07:12:06.468Z,85.11
2023-03-24T07:14:34.353Z,84.68
2023-03-24T07:17:02.526Z,83.62
2023-03-24T07:19:54.136Z,84.13
2023-03-24T07:22:41.188Z,82.87
2023-03-24T07:25:26.586Z,82.48
2023-03-24T07:28:09.904Z,83.02
2023-03-24T07:30:40.942Z,82.39
2023-03-24T07:33:12.811Z,82.44
2023-03-24T07:35:43.128Z,82.00
2023-03-24T07:38:10.859Z,80.78
2023-03-24T07:40:38.018Z,80.48
2023-03-24T07:43:06.682Z,80.13
2023-03-24T07:46:11.495Z,79.96
2023-03-24T07:48:38.493Z,80.29
2023-03-24T07:51:05.874Z,79.58
2023-03-24T07:53:55.753Z,80.18
2023-03-24T07:56:43.433Z,79.71
2023-03-24T07:59:12.078Z,78.66
2023-03-24T08:02:05.174Z,78.60
2023-03-24T08:04:53.897Z,77.94
2023-03-24T08:07:54.940Z,77.24
2023-03-24T08:10:24.353Z,76.91
2023-03-24T08:12:51.327Z,77.74
2023-03-24T08:15:18.205Z,77.68
2023-03-24T08:17:45.322Z,77.38
2023-03-24T08:20:15.137Z,76.51
2023-03-24T08:22:44.326Z,76.71
2023-03-24T08:25:12.282Z,76.78
2023-03-24T08:27:40.233Z,76.21
2023-03-24T08:30:10.601Z,76.13
2023-03-24T08:32:37.912Z,76.22
2023-03-24T08:35:05.233Z,76.86
2023-03-24T08:37:32.156Z,75.36
2023-03-24T08:40:05.625Z,75.93
2023-03-24T08:42:32.593Z,75.81
2023-03-24T08:44:59.483Z,75.10
2023-03-24T08:47:26.593Z,75.15
2023-03-24T08:49:58.322Z,74.85
2023-03-24T08:52:26.149Z,75.63
2023-03-24T08:54:52.963Z,74.76
2023-03-24T08:57:19.826Z,74.04
2023-03-24T08:59:47.341Z,73.45
2023-03-24T09:02:15.454Z,74.09
2023-03-24T09:04:43.001Z,73.75
2023-03-24T09:07:10.482Z,74.30
2023-03-24T09:09:37.486Z,73.24
2023-03-24T09:12:04.348Z,73.11
2023-03-24T09:14:31.351Z,73.21
2023-03-24T09:16:58.251Z,72.56
2023-03-24T09:19:25.205Z,71.74
2023-03-24T09:21:52.143Z,72.57
2023-03-24T09:24:18.926Z,72.82
2023-03-24T09:26:46.030Z,74.56
2023-03-24T09:29:12.894Z,73.83
2023-03-24T09:31:39.776Z,73.51
2023-03-24T09:34:06.655Z,71.82
2023-03-24T09:36:33.497Z,71.17
2023-03-24T09:39:00.282Z,72.59
2023-03-24T09:41:29.802Z,72.39
2023-03-24T09:44:05.805Z,71.78
2023-03-24T09:46:39.558Z,71.54
2023-03-24T09:49:06.431Z,70.54
2023-03-24T09:51:36.778Z,70.68
2023-03-24T09:54:12.241Z,70.35
2023-03-24T09:56:41.524Z,70.82
2023-03-24T09:59:16.172Z,69.48
2023-03-24T10:01:43.033Z,69.93
2023-03-24T10:04:21.314Z,70.24
2023-03-24T10:06:53.096Z,69.12
2023-03-24T10:09:25.900Z,68.85
2023-03-24T10:11:58.080Z,68.51
2023-03-24T10:14:27.784Z,68.67
2023-03-24T10:17:04.354Z,66.99
2023-03-24T10:19:46.537Z,66.22
2023-03-24T10:22:21.285Z,67.05
2023-03-24T10:25:19.452Z,66.92
2023-03-24T10:27:55.974Z,68.05
2023-03-24T10:30:26.837Z,65.69
2023-03-24T10:32:55.047Z,66.48
2023-03-24T10:35:26.318Z,66.78
2023-03-24T10:37:53.785Z,65.79
2023-03-24T10:40:24.676Z,65.50
2023-03-24T10:43:06.233Z,65.70
2023-03-24T10:45:36.750Z,64.67
2023-03-24T10:48:04.521Z,64.96
2023-03-24T10:50:33.737Z,64.24
2023-03-24T10:53:00.667Z,64.27
2023-03-24T10:55:31.957Z,64.46
2023-03-24T10:58:00.060Z,64.00
2023-03-24T11:00:32.112Z,64.17
2023-03-24T11:02:59.057Z,60.03
2023-03-24T11:05:30.685Z,60.04
2023-03-24T11:08:11.392Z,59.34
2023-03-24T11:10:38.783Z,60.65
2023-03-24T11:13:07.964Z,59.66
2023-03-24T11:15:37.466Z,59.63
2023-03-24T11:18:11.344Z,61.64
2023-03-24T11:20:45.310Z,60.99
2023-03-24T11:23:37.707Z,59.17
2023-03-24T11:26:13.756Z,60.43
2023-03-24T11:28:52.727Z,58.87
2023-03-24T11:31:31.173Z,59.01
2023-03-24T11:34:42.461Z,58.95
2023-03-24T11:37:14.750Z,58.74
2023-03-24T11:39:41.661Z,57.75
2023-03-24T11:42:12.110Z,58.48
2023-03-24T11:44:39.052Z,59.47
2023-03-24T11:47:14.818Z,59.72
2023-03-24T11:50:10.123Z,59.42
2023-03-24T11:53:01.789Z,61.33
2023-03-24T11:55:38.789Z,60.72
2023-03-24T11:58:28.993Z,60.05
2023-03-24T12:01:12.501Z,61.08
2023-03-24T12:04:21.333Z,60.35
2023-03-24T12:07:07.967Z,59.75
2023-03-24T12:09:48.514Z,57.63
2023-03-24T12:12:45.755Z,60.39
2023-03-24T12:15:26.609Z,61.94
2023-03-24T12:18:09.380Z,62.73
2023-03-24T12:20:54.074Z,61.45
2023-03-24T12:23:52.955Z,58.22
2023-03-24T12:26:29.408Z,56.83
2023-03-24T12:29:14.232Z,57.83
2023-03-24T12:32:16.557Z,58.11
2023-03-24T12:34:43.506Z,58.11
2023-03-24T12:37:27.439Z,58.48
2023-03-24T12:39:57.216Z,60.93
2023-03-24T12:42:25.104Z,59.27
2023-03-24T12:45:19.884Z,59.11
2023-03-24T12:48:16.025Z,58.06
2023-03-24T12:50:42.815Z,56.69
2023-03-24T12:53:46.981Z,54.83
2023-03-24T12:56:19.611Z,56.67
2023-03-24T12:58:52.253Z,59.32
2023-03-24T13:01:22.096Z,64.10
2023-03-24T13:03:54.083Z,63.14
2023-03-24T13:06:26.234Z,61.99
2023-03-24T13:09:05.316Z,64.22
2023-03-24T13:11:39.164Z,63.72
2023-03-24T13:14:09.506Z,63.86
2023-03-24T13:16:38.221Z,65.61
2023-03-24T13:19:14.980Z,66.33
2023-03-24T13:21:41.872Z,67.51
2023-03-24T13:24:14.387Z,69.90
2023-03-24T13:26:49.759Z,69.42
2023-03-24T13:29:38.448Z,70.79
2023-03-24T13:32:28.301Z,70.24
2023-03-24T13:35:06.841Z,72.24
2023-03-24T13:37:39.905Z,75.27
2023-03-24T13:40:20.519Z,73.93
2023-03-24T13:43:06.673Z,75.29
2023-03-24T13:45:41.325Z,76.40
2023-03-24T13:48:11.428Z,76.95
2023-03-24T13:50:54.609Z,77.97
2023-03-24T13:53:35.672Z,77.50
2023-03-24T13:56:03.537Z,78.25
2023-03-24T13:58:46.736Z,78.30
2023-03-24T14:01:18.152Z,78.24
2023-03-24T14:03:46.879Z,76.85
2023-03-24T14:06:17.632Z,79.57
2023-03-24T14:08:53.679Z,79.24
2023-03-24T14:11:34.154Z,79.29
2023-03-24T14:14:13.293Z,77.96
2023-03-24T14:17:03.644Z,79.02
2023-03-24T14:19:39.462Z,79.45
2023-03-24T14:22:11.451Z,79.47
2023-03-24T14:24:39.530Z,79.32
2023-03-24T14:27:23.884Z,78.81
2023-03-24T14:29:51.548Z,77.56
2023-03-24T14:32:22.987Z,77.19
2023-03-24T14:35:00.353Z,76.32
2023-03-24T14:37:27.872Z,76.29
2023-03-24T14:39:57.573Z,77.76
2023-03-24T14:42:33.398Z,76.92
2023-03-24T14:45:01.002Z,78.17
2023-03-24T14:47:32.439Z,83.23
2023-03-24T14:50:02.120Z,80.81
2023-03-24T14:52:36.587Z,78.52
2023-03-24T14:55:10.981Z,80.05
2023-03-24T14:57:50.307Z,81.06
2023-03-24T15:00:24.942Z,81.39
2023-03-24T15:02:55.964Z,80.00
2023-03-24T15:05:31.888Z,79.77
2023-03-24T15:08:06.197Z,79.99
2023-03-24T15:10:53.101Z,80.11
2023-03-24T15:13:35.094Z,81.24
2023-03-24T15:16:06.917Z,78.00
2023-03-24T15:18:34.499Z,81.66
2023-03-24T15:21:01.334Z,82.84
2023-03-24T15:23:28.675Z,82.13
2023-03-24T15:25:56.212Z,82.19
2023-03-24T15:28:30.787Z,81.52
2023-03-24T15:31:01.463Z,83.35
2023-03-24T15:33:31.314Z,82.01
2023-03-24T15:36:00.086Z,81.73
2023-03-24T15:38:31.969Z,80.69
2023-03-24T15:41:05.071Z,80.48
2023-03-24T15:43:32.152Z,81.74
2023-03-24T15:46:11.649Z,80.83
2023-03-24T15:48:39.545Z,82.25
2023-03-24T15:51:09.366Z,81.99
2023-03-24T15:53:49.224Z,83.88
2023-03-24T15:56:20.360Z,83.62
2023-03-24T15:58:54.623Z,83.68
2023-03-24T16:01:27.528Z,85.13
2023-03-24T16:03:55.046Z,84.46
2023-03-24T16:06:30.101Z,84.62
2023-03-24T16:09:10.815Z,83.91
2023-03-24T16:11:37.677Z,85.90
2023-03-24T16:14:27.315Z,85.00
2023-03-24T16:16:59.222Z,84.32
2023-03-24T16:19:26.849Z,85.72
2023-03-24T16:21:55.012Z,85.22
2023-03-24T16:24:22.233Z,84.78
2023-03-24T16:26:50.139Z,85.15
2023-03-24T16:29:19.796Z,85.03
2023-03-24T16:31:51.377Z,85.33
2023-03-24T16:34:20.828Z,83.70
2023-03-24T16:36:49.222Z,84.86
2023-03-24T16:39:21.625Z,85.98
2023-03-24T16:41:48.451Z,83.92
2023-03-24T16:44:17.460Z,84.60
2023-03-24T16:46:46.780Z,86.07
2023-03-24T16:49:16.099Z,86.20
2023-03-24T16:51:43.484Z,84.80
2023-03-24T16:54:10.569Z,83.28
2023-03-24T16:56:38.484Z,85.09
2023-03-24T16:59:06.293Z,84.70
2023-03-24T17:01:38.244Z,84.51
2023-03-24T17:04:12.041Z,82.79
2023-03-24T17:06:41.663Z,81.50
2023-03-24T17:09:10.095Z,83.50
2023-03-24T17:11:40.510Z,87.40
2023-03-24T17:14:12.551Z,88.11
2023-03-24T17:16:43.571Z,85.71
2023-03-24T17:19:18.636Z,85.42
2023-03-24T17:21:45.450Z,85.28
2023-03-24T17:24:13.143Z,86.37
2023-03-24T17:26:41.809Z,85.64
2023-03-24T17:29:14.417Z,84.36
2023-03-24T17:31:43.469Z,86.98
2023-03-24T17:34:21.702Z,86.83
2023-03-24T17:36:50.810Z,87.67
2023-03-24T17:39:21.930Z,87.42
2023-03-24T17:41:49.017Z,88.20
2023-03-24T17:44:15.961Z,86.75
2023-03-24T17:46:42.833Z,84.28
2023-03-24T17:49:09.649Z,85.76
2023-03-24T17:51:36.491Z,85.20
2023-03-24T17:54:04.285Z,83.86
2023-03-24T17:56:31.482Z,87.03
2023-03-24T17:59:03.215Z,87.23
2023-03-24T18:01:30.246Z,86.36
2023-03-24T18:03:57.512Z,87.34
2023-03-24T18:06:24.638Z,86.57
2023-03-24T18:08:51.633Z,84.93
2023-03-24T18:11:18.489Z,86.02
2023-03-24T18:13:45.446Z,87.46
2023-03-24T18:16:20.722Z,88.26
2023-03-24T18:18:49.121Z,86.90
2023-03-24T18:21:16.099Z,88.57
2023-03-24T18:23:43.126Z,87.25
2023-03-24T18:26:10.298Z,88.61
2023-03-24T18:28:39.015Z,88.14
2023-03-24T18:31:26.315Z,88.11
2023-03-24T18:33:54.815Z,86.55
2023-03-24T18:36:26.455Z,84.79
2023-03-24T18:39:02.185Z,85.54
2023-03-24T18:41:30.067Z,86.05
2023-03-24T18:43:58.846Z,85.23
2023-03-24T18:46:26.646Z,86.24
2023-03-24T18:48:53.858Z,86.80
2023-03-24T18:51:21.911Z,87.66
2023-03-24T18:53:49.274Z,88.67
2023-03-24T18:56:16.823Z,89.55
2023-03-24T18:58:44.405Z,89.46
2023-03-24T19:01:13.270Z,88.90
2023-03-24T19:03:43.000Z,88.77
2023-03-24T19:06:12.616Z,87.08
2023-03-24T19:08:42.448Z,88.59
2023-03-24T19:11:09.560Z,88.68
2023-03-24T19:13:36.671Z,89.54
2023-03-24T19:16:05.075Z,90.62
2023-03-24T19:18:31.953Z,89.76
2023-03-24T19:20:59.132Z,88.21
2023-03-24T19:23:26.564Z,87.14
2023-03-24T19:25:55.161Z,89.02
2023-03-24T19:28:29.865Z,89.63
2023-03-24T19:31:02.811Z,90.53
2023-03-24T19:33:29.626Z,90.60
2023-03-24T19:35:58.480Z,90.81
2023-03-24T19:38:25.382Z,89.84
2023-03-24T19:40:53.933Z,89.86
2023-03-24T19:43:22.426Z,90.63
2023-03-24T19:45:53.898Z,90.37
2023-03-24T19:48:21.710Z,90.12
2023-03-24T19:50:54.653Z,88.60
2023-03-24T19:53:22.695Z,89.58
2023-03-24T19:55:50.554Z,88.98
2023-03-24T19:58:18.133Z,88.70
2023-03-24T20:00:45.024Z,88.58
2023-03-24T20:03:12.149Z,89.24
2023-03-24T20:05:39.031Z,90.52
2023-03-24T20:08:05.986Z,91.00
2023-03-24T20:10:35.627Z,90.92
2023-03-24T20:13:02.786Z,91.66
2023-03-24T20:15:29.566Z,91.42
2023-03-24T20:17:56.467Z,90.96
2023-03-24T20:20:23.320Z,90.57
2023-03-24T20:22:50.409Z,91.35
2023-03-24T20:25:18.654Z,90.50
2023-03-24T20:27:47.075Z,89.94
2023-03-24T20:30:16.377Z,89.98
2023-03-24T20:32:43.221Z,89.56
2023-03-24T20:35:10.531Z,89.34
2023-03-24T20:37:37.424Z,89.75
2023-03-24T20:40:06.354Z,89.39
2023-03-24T20:42:33.632Z,89.49
2023-03-24T20:45:00.424Z,89.71
2023-03-24T20:47:27.233Z,88.52
2023-03-24T20:49:54.117Z,88.79
2023-03-24T20:52:23.076Z,87.66
2023-03-24T20:54:51.469Z,88.42
2023-03-24T20:57:19.209Z,89.49
2023-03-24T20:59:49.084Z,88.86
2023-03-24T21:02:16.061Z,88.04
2023-03-24T21:04:43.424Z,87.58
2023-03-24T21:07:10.365Z,86.32
2023-03-24T21:09:37.295Z,86.35
2023-03-24T21:12:06.587Z,86.37
2023-03-24T21:14:34.136Z,85.77
2023-03-24T21:17:01.500Z,86.89
2023-03-24T21:19:28.666Z,87.92
2023-03-24T21:21:56.281Z,88.00
2023-03-24T21:24:24.358Z,87.70
2023-03-24T21:26:53.314Z,88.44
2023-03-24T21:29:22.547Z,88.06
2023-03-24T21:31:49.974Z,88.21
2023-03-24T21:34:16.830Z,88.27
2023-03-24T21:36:43.743Z,89.29
2023-03-24T21:39:12.125Z,89.80
2023-03-24T21:41:39.952Z,90.63
2023-03-24T21:44:09.393Z,87.48
2023-03-24T21:46:37.073Z,88.55
2023-03-24T21:49:05.215Z,87.67
2023-03-24T21:51:34.983Z,87.12
2023-03-24T21:54:04.044Z,89.38
2023-03-24T21:56:32.464Z,88.56
2023-03-24T21:58:59.655Z,88.59
2023-03-24T22:01:26.550Z,89.06
2023-03-24T22:03:58.823Z,86.55
2023-03-24T22:06:28.745Z,87.62
2023-03-24T22:08:58.730Z,87.43
2023-03-24T22:11:25.902Z,88.89
2023-03-24T22:13:53.089Z,89.25
2023-03-24T22:16:19.991Z,88.03
2023-03-24T22:18:47.528Z,89.40
2023-03-24T22:21:14.558Z,89.09
2023-03-24T22:23:42.709Z,88.51
2023-03-24T22:26:15.108Z,90.32
2023-03-24T22:28:42.614Z,89.16
2023-03-24T22:31:12.238Z,89.50
2023-03-24T22:33:39.988Z,88.62
2023-03-24T22:36:07.396Z,88.26
2023-03-24T22:38:34.572Z,88.65
2023-03-24T22:41:06.934Z,89.83
2023-03-24T22:43:35.211Z,89.31
2023-03-24T22:46:02.628Z,89.94
2023-03-24T22:48:29.746Z,89.34
2023-03-24T22:50:56.575Z,90.09
2023-03-24T22:53:23.420Z,89.53
2023-03-24T22:55:50.604Z,88.27
2023-03-24T22:58:17.732Z,88.68
2023-03-24T23:00:45.645Z,89.28
2023-03-24T23:03:12.575Z,89.86
2023-03-24T23:05:41.153Z,89.19
2023-03-24T23:08:09.524Z,89.43
2023-03-24T23:10:38.914Z,88.65
2023-03-24T23:13:05.729Z,89.02
2023-03-24T23:15:32.705Z,89.50
2023-03-24T23:18:00.176Z,89.45
2023-03-24T23:20:28.545Z,88.78
2023-03-24T23:22:56.913Z,89.69
2023-03-24T23:25:23.871Z,90.13
2023-03-24T23:27:51.041Z,90.50
2023-03-24T23:30:18.227Z,90.47
2023-03-24T23:32:47.077Z,89.84
2023-03-24T23:35:14.673Z,89.44
2023-03-24T23:37:41.589Z,89.43
2023-03-24T23:40:15.642Z,89.23
2023-03-24T23:42:46.977Z,89.17
2023-03-24T23:45:18.056Z,89.40
2023-03-24T23:47:50.756Z,89.58
2023-03-24T23:50:19.380Z,89.82
2023-03-24T23:52:46.363Z,88.75
2023-03-24T23:55:15.116Z,89.04
2023-03-24T23:57:42.700Z,90.00
